createdAt,value
2022-12-10T00:01:17.158Z,19.92
2022-12-10T00:03:45.239Z,23.33
2022-12-10T00:06:17.274Z,24.45
2022-12-10T00:08:44.344Z,25.20
2022-12-10T00:11:13.700Z,23.42
2022-12-10T00:13:40.948Z,23.23
2022-12-10T00:16:09.698Z,22.33
2022-12-10T00:18:36.984Z,21.23
2022-12-10T00:21:08.783Z,22.20
2022-12-10T00:23:35.788Z,24.33
2022-12-10T00:26:24.679Z,24.15
2022-12-10T00:28:52.724Z,22.52
2022-12-10T00:31:28.082Z,24.05
2022-12-10T00:33:59.239Z,23.27
2022-12-10T00:36:31.326Z,24.92
2022-12-10T00:38:57.840Z,22.88
2022-12-10T00:41:24.455Z,22.15
2022-12-10T00:43:51.690Z,23.20
2022-12-10T00:46:19.567Z,25.30
2022-12-10T00:48:46.543Z,23.98
2022-12-10T00:51:17.547Z,24.17
2022-12-10T00:53:45.375Z,22.98
2022-12-10T00:56:13.702Z,23.15
2022-12-10T00:58:40.771Z,25.20
2022-12-10T01:01:28.938Z,26.13
2022-12-10T01:03:58.554Z,25.08
2022-12-10T01:06:31.185Z,24.55
2022-12-10T01:09:00.882Z,22.52
2022-12-10T01:11:32.649Z,24.13
2022-12-10T01:13:59.461Z,22.08
2022-12-10T01:16:27.143Z,25.63
2022-12-10T01:18:55.641Z,24.08
2022-12-10T01:21:23.067Z,23.92
2022-12-10T01:23:50.990Z,23.10
2022-12-10T01:26:20.553Z,26.63
2022-12-10T01:28:47.903Z,24.50
2022-12-10T01:31:20.168Z,26.35
2022-12-10T01:33:47.553Z,23.52
2022-12-10T01:36:17.122Z,21.35
2022-12-10T01:38:44.119Z,25.70
2022-12-10T01:41:21.464Z,22.80
2022-12-10T01:43:55.392Z,23.85
2022-12-10T01:46:24.104Z,26.27
2022-12-10T01:48:51.256Z,25.60
2022-12-10T01:51:18.319Z,24.92
2022-12-10T01:53:46.268Z,25.48
2022-12-10T01:56:13.653Z,25.67
2022-12-10T01:58:40.336Z,24.70
2022-12-10T02:01:22.051Z,23.02
2022-12-10T02:04:21.383Z,23.15
2022-12-10T02:07:14.373Z,24.85
2022-12-10T02:10:09.275Z,25.25
2022-12-10T02:12:43.060Z,23.13
2022-12-10T02:15:16.575Z,25.17
2022-12-10T02:18:08.684Z,24.45
2022-12-10T02:20:46.107Z,23.90
2022-12-10T02:23:22.891Z,22.30
2022-12-10T02:26:00.255Z,22.30
2022-12-10T02:28:50.855Z,25.42
2022-12-10T02:31:22.535Z,24.92
2022-12-10T02:33:52.394Z,23.75
2022-12-10T02:36:22.622Z,23.80
2022-12-10T02:38:51.749Z,24.08
2022-12-10T02:41:27.228Z,23.80
2022-12-10T02:43:56.849Z,22.45
2022-12-10T02:46:25.433Z,22.80
2022-12-10T02:48:53.277Z,26.45
2022-12-10T02:51:19.711Z,25.73
2022-12-10T02:53:47.011Z,22.48
2022-12-10T02:56:51.842Z,22.33
2022-12-10T02:59:58.324Z,24.73
2022-12-10T03:02:38.317Z,21.30
2022-12-10T03:05:16.098Z,25.95
2022-12-10T03:07:51.258Z,23.67
2022-12-10T03:10:39.509Z,22.98
2022-12-10T03:13:10.655Z,26.58
2022-12-10T03:15:41.724Z,23.80
2022-12-10T03:18:10.828Z,24.75
2022-12-10T03:20:45.514Z,24.17
2022-12-10T03:23:16.231Z,23.23
2022-12-10T03:25:43.165Z,24.50
2022-12-10T03:28:10.381Z,23.42
2022-12-10T03:30:38.841Z,22.02
2022-12-10T03:33:06.220Z,23.67
2022-12-10T03:35:33.501Z,22.77
2022-12-10T03:38:00.173Z,23.85
2022-12-10T03:40:27.298Z,25.25
2022-12-10T03:42:53.723Z,23.40
2022-12-10T03:45:20.494Z,23.65
2022-12-10T03:47:47.195Z,24.83
2022-12-10T03:50:13.713Z,23.02
2022-12-10T03:52:40.174Z,24.50
2022-12-10T03:55:07.750Z,25.42
2022-12-10T03:57:34.981Z,23.60
2022-12-10T04:00:01.783Z,25.45
2022-12-10T04:02:28.321Z,24.20
2022-12-10T04:04:54.765Z,24.52
2022-12-10T04:07:21.317Z,25.95
2022-12-10T04:09:47.875Z,25.35
2022-12-10T04:12:14.306Z,23.55
2022-12-10T04:14:59.350Z,23.17
2022-12-10T04:17:25.797Z,25.80
2022-12-10T04:19:52.205Z,25.63
2022-12-10T04:22:37.284Z,24.88
2022-12-10T04:25:22.554Z,27.90
2022-12-10T04:27:49.206Z,23.75
2022-12-10T04:30:16.063Z,26.88
2022-12-10T04:32:42.494Z,26.77
2022-12-10T04:35:09.662Z,24.88
2022-12-10T04:37:36.626Z,25.70
2022-12-10T04:40:04.046Z,25.75
2022-12-10T04:42:30.577Z,26.25
2022-12-10T04:44:57.036Z,26.20
2022-12-10T04:47:23.895Z,27.05
2022-12-10T04:49:50.371Z,27.17
2022-12-10T04:52:17.405Z,26.98
2022-12-10T04:54:44.996Z,28.73
2022-12-10T04:57:12.099Z,26.33
2022-12-10T04:59:38.772Z,28.48
2022-12-10T05:02:06.608Z,27.98
2022-12-10T05:04:33.063Z,27.33
2022-12-10T05:06:59.707Z,27.83
2022-12-10T05:09:26.271Z,28.98
2022-12-10T05:11:52.695Z,30.13
2022-12-10T05:14:19.150Z,26.63
2022-12-10T05:16:45.619Z,28.52
2022-12-10T05:19:12.651Z,28.17
2022-12-10T05:22:14.408Z,27.05
2022-12-10T05:24:41.000Z,27.42
2022-12-10T05:27:07.484Z,29.58
2022-12-10T05:29:34.010Z,28.17
2022-12-10T05:32:00.759Z,30.92
2022-12-10T05:34:27.228Z,28.08
2022-12-10T05:36:53.642Z,31.75
2022-12-10T05:39:20.039Z,28.58
2022-12-10T05:41:46.637Z,28.63
2022-12-10T05:44:13.245Z,27.38
2022-12-10T05:46:39.795Z,29.35
2022-12-10T05:49:07.159Z,32.42
2022-12-10T05:51:36.405Z,29.45
2022-12-10T05:54:04.541Z,28.92
2022-12-10T05:56:31.701Z,30.55
2022-12-10T05:59:01.176Z,29.42
2022-12-10T06:01:33.915Z,34.67
2022-12-10T06:04:01.572Z,32.03
2022-12-10T06:06:30.868Z,29.98
2022-12-10T06:08:58.088Z,33.38
2022-12-10T06:11:25.084Z,29.45
2022-12-10T06:13:56.023Z,30.20
2022-12-10T06:16:23.680Z,35.03
2022-12-10T06:18:50.255Z,31.25
2022-12-10T06:21:18.926Z,31.67
2022-12-10T06:23:46.070Z,35.58
2022-12-10T06:26:19.075Z,32.78
2022-12-10T06:28:46.682Z,33.60
2022-12-10T06:31:13.687Z,30.38
2022-12-10T06:33:40.157Z,30.10
2022-12-10T06:36:08.595Z,30.73
2022-12-10T06:38:36.463Z,36.53
2022-12-10T06:41:08.319Z,32.67
2022-12-10T06:43:35.292Z,34.50
2022-12-10T06:46:09.501Z,31.10
2022-12-10T06:48:36.643Z,30.88
2022-12-10T06:51:04.844Z,29.50
2022-12-10T06:53:32.794Z,31.15
2022-12-10T06:56:00.754Z,30.15
2022-12-10T06:58:29.548Z,30.77
2022-12-10T07:01:04.188Z,32.88
2022-12-10T07:03:31.866Z,32.50
2022-12-10T07:06:00.143Z,30.67
2022-12-10T07:08:26.632Z,34.10
2022-12-10T07:10:53.686Z,30.25
2022-12-10T07:13:20.390Z,32.15
2022-12-10T07:15:46.834Z,31.85
2022-12-10T07:18:13.352Z,32.08
2022-12-10T07:20:39.770Z,31.08
2022-12-10T07:23:06.224Z,29.90
2022-12-10T07:25:34.101Z,30.48
2022-12-10T07:28:00.596Z,32.55
2022-12-10T07:30:27.017Z,29.23
2022-12-10T07:32:53.411Z,31.52
2022-12-10T07:35:19.852Z,28.20
2022-12-10T07:37:46.248Z,32.60
2022-12-10T07:40:12.780Z,32.72
2022-12-10T07:42:39.208Z,32.53
2022-12-10T07:45:06.148Z,37.05
2022-12-10T07:47:35.328Z,31.05
2022-12-10T07:50:01.739Z,30.38
2022-12-10T07:52:28.135Z,31.33
2022-12-10T07:54:54.548Z,32.08
2022-12-10T07:57:20.956Z,32.92
2022-12-10T07:59:47.938Z,31.33
2022-12-10T08:02:14.335Z,31.70
2022-12-10T08:04:40.910Z,30.60
2022-12-10T08:07:08.490Z,34.42
2022-12-10T08:09:35.893Z,31.45
2022-12-10T08:12:02.306Z,28.92
2022-12-10T08:14:28.893Z,33.15
2022-12-10T08:16:55.273Z,30.55
2022-12-10T08:19:25.801Z,31.27
2022-12-10T08:21:54.874Z,32.25
2022-12-10T08:24:21.278Z,29.85
2022-12-10T08:26:47.664Z,29.65
2022-12-10T08:29:14.087Z,31.52
2022-12-10T08:31:40.569Z,29.35
2022-12-10T08:34:13.934Z,32.60
2022-12-10T08:36:40.414Z,27.80
2022-12-10T08:39:06.831Z,28.23
2022-12-10T08:41:33.336Z,28.27
2022-12-10T08:43:59.780Z,28.90
2022-12-10T08:46:27.488Z,29.40
2022-12-10T08:48:53.910Z,29.10
2022-12-10T08:51:21.020Z,31.00
2022-12-10T08:53:48.255Z,29.85
2022-12-10T08:56:16.200Z,27.83
2022-12-10T08:58:43.316Z,32.50
2022-12-10T09:01:11.868Z,26.30
2022-12-10T09:03:38.815Z,26.35
2022-12-10T09:06:12.258Z,24.25
2022-12-10T09:08:39.193Z,24.90
2022-12-10T09:11:10.666Z,26.10
2022-12-10T09:13:37.136Z,23.70
2022-12-10T09:16:04.407Z,25.95
2022-12-10T09:18:30.994Z,23.63
2022-12-10T09:20:57.958Z,26.52
2022-12-10T09:23:25.015Z,25.52
2022-12-10T09:25:51.540Z,27.38
2022-12-10T09:28:18.031Z,26.85
2022-12-10T09:30:44.463Z,25.65
2022-12-10T09:33:11.278Z,27.00
2022-12-10T09:35:41.502Z,26.58
2022-12-10T09:38:07.957Z,24.50
2022-12-10T09:40:44.488Z,26.08
2022-12-10T09:43:37.969Z,25.35
2022-12-10T09:46:24.740Z,23.25
2022-12-10T09:49:12.505Z,24.40
2022-12-10T09:51:39.157Z,28.15
2022-12-10T09:54:19.486Z,27.08
2022-12-10T09:56:46.473Z,26.20
2022-12-10T09:59:38.055Z,22.42
2022-12-10T10:02:04.542Z,22.60
2022-12-10T10:04:31.291Z,23.67
2022-12-10T10:06:58.362Z,25.73
2022-12-10T10:09:25.245Z,27.08
2022-12-10T10:11:51.913Z,28.13
2022-12-10T10:14:26.957Z,23.10
2022-12-10T10:17:00.521Z,26.15
2022-12-10T10:19:30.961Z,27.50
2022-12-10T10:21:58.752Z,28.23
2022-12-10T10:24:40.927Z,27.85
2022-12-10T10:27:16.553Z,25.98
2022-12-10T10:29:46.311Z,27.05
2022-12-10T10:32:23.419Z,27.15
2022-12-10T10:34:55.571Z,30.48
2022-12-10T10:37:31.974Z,29.73
2022-12-10T10:39:59.397Z,29.77
2022-12-10T10:42:26.090Z,32.60
2022-12-10T10:44:52.653Z,31.00
2022-12-10T10:47:34.375Z,31.83
2022-12-10T10:50:03.538Z,28.67
2022-12-10T10:52:32.029Z,28.63
2022-12-10T10:54:58.644Z,29.67
2022-12-10T10:57:30.336Z,33.30
2022-12-10T11:00:09.188Z,30.75
2022-12-10T11:02:41.637Z,28.13
2022-12-10T11:07:39.051Z,26.60
2022-12-10T11:10:17.554Z,26.63
2022-12-10T11:12:46.402Z,25.92
2022-12-10T11:15:25.497Z,26.65
2022-12-10T11:17:55.139Z,26.02
2022-12-10T11:20:36.172Z,24.75
2022-12-10T11:23:13.853Z,26.88
2022-12-10T11:25:43.280Z,26.80
2022-12-10T11:28:16.097Z,23.60
2022-12-10T11:31:14.684Z,24.75
2022-12-10T11:34:19.591Z,24.30
2022-12-10T11:37:11.481Z,23.90
2022-12-10T11:39:37.904Z,24.83
2022-12-10T11:42:20.416Z,25.13
2022-12-10T11:45:08.723Z,24.80
2022-12-10T11:48:09.721Z,26.20
2022-12-10T11:50:43.891Z,26.93
2022-12-10T11:53:28.557Z,25.75
2022-12-10T11:56:18.079Z,26.65
2022-12-10T11:59:03.052Z,27.92
2022-12-10T12:01:45.003Z,24.05
2022-12-10T12:04:17.521Z,25.98
2022-12-10T12:07:09.008Z,25.65
2022-12-10T12:10:06.636Z,25.88
2022-12-10T12:12:56.052Z,23.20
2022-12-10T12:15:30.952Z,29.27
2022-12-10T12:18:04.226Z,30.83
2022-12-10T12:20:38.345Z,24.10
2022-12-10T12:23:30.595Z,23.90
2022-12-10T12:26:04.886Z,25.77
2022-12-10T12:28:32.611Z,26.48
2022-12-10T12:31:26.701Z,27.63
2022-12-10T12:34:02.623Z,25.00
2022-12-10T12:36:35.210Z,24.70
2022-12-10T12:39:29.985Z,24.55
2022-12-10T12:42:18.270Z,22.40
2022-12-10T12:44:44.816Z,23.38
2022-12-10T12:47:30.037Z,22.55
2022-12-10T12:49:59.701Z,22.10
2022-12-10T12:52:41.310Z,24.25
2022-12-10T12:57:52.521Z,22.33
2022-12-10T13:00:22.809Z,23.45
2022-12-10T13:03:07.264Z,23.70
2022-12-10T13:05:37.829Z,24.90
2022-12-10T13:08:19.903Z,26.42
2022-12-10T13:10:52.499Z,27.20
2022-12-10T13:13:27.656Z,27.77
2022-12-10T13:15:55.060Z,24.83
2022-12-10T13:18:37.315Z,24.88
2022-12-10T13:21:30.515Z,26.20
2022-12-10T13:24:12.241Z,22.75
2022-12-10T13:27:02.087Z,28.17
2022-12-10T13:29:28.558Z,26.85
2022-12-10T13:32:14.155Z,24.13
2022-12-10T13:34:40.626Z,26.63
2022-12-10T13:37:18.426Z,22.83
2022-12-10T13:39:53.013Z,25.25
2022-12-10T13:42:38.077Z,24.98
2022-12-10T13:45:23.871Z,22.88
2022-12-10T13:47:56.219Z,25.42
2022-12-10T13:50:37.752Z,24.30
2022-12-10T13:53:16.460Z,26.42
2022-12-10T13:56:10.414Z,25.00
2022-12-10T13:58:52.403Z,24.77
2022-12-10T14:01:31.433Z,24.85
2022-12-10T14:04:00.599Z,25.40
2022-12-10T14:06:27.957Z,23.85
2022-12-10T14:08:58.049Z,23.50
2022-12-10T14:11:35.464Z,24.30
2022-12-10T14:14:06.648Z,29.00
2022-12-10T14:16:36.839Z,24.45
2022-12-10T14:19:12.623Z,28.30
2022-12-10T14:21:42.449Z,29.20
2022-12-10T14:24:28.271Z,29.23
2022-12-10T14:27:01.717Z,26.85
2022-12-10T14:29:29.564Z,26.52
2022-12-10T14:31:56.990Z,31.02
2022-12-10T14:34:27.812Z,31.83
2022-12-10T14:37:02.397Z,30.08
2022-12-10T14:39:32.404Z,31.15
2022-12-10T14:42:01.704Z,30.13
2022-12-10T14:44:29.023Z,31.55
2022-12-10T14:47:07.726Z,30.02
2022-12-10T14:49:43.428Z,32.03
2022-12-10T14:52:18.227Z,29.42
2022-12-10T14:54:46.041Z,32.95
2022-12-10T14:57:18.865Z,29.52
2022-12-10T14:59:51.578Z,31.65
2022-12-10T15:02:21.352Z,29.30
2022-12-10T15:04:50.037Z,27.92
2022-12-10T15:07:21.637Z,27.48
2022-12-10T15:09:49.800Z,25.20
2022-12-10T15:12:37.136Z,31.08
2022-12-10T15:15:13.200Z,27.95
2022-12-10T15:17:53.406Z,30.50
2022-12-10T15:20:22.429Z,25.83
2022-12-10T15:22:48.923Z,29.55
2022-12-10T15:25:28.472Z,28.95
2022-12-10T15:28:02.005Z,30.23
2022-12-10T15:30:39.918Z,32.47
2022-12-10T15:33:28.199Z,29.92
2022-12-10T15:35:57.688Z,30.40
2022-12-10T15:38:24.781Z,26.70
2022-12-10T15:40:51.315Z,26.80
2022-12-10T15:43:23.840Z,25.20
2022-12-10T15:45:51.224Z,24.95
2022-12-10T15:48:17.834Z,23.92
2022-12-10T15:50:46.351Z,24.67
2022-12-10T15:53:14.911Z,24.55
2022-12-10T15:55:41.517Z,24.17
2022-12-10T15:58:12.709Z,24.88
2022-12-10T16:00:44.492Z,22.38
2022-12-10T16:03:13.694Z,26.05
2022-12-10T16:05:40.450Z,23.25
2022-12-10T16:08:16.959Z,22.67
2022-12-10T16:10:44.867Z,22.70
2022-12-10T16:13:19.362Z,24.23
2022-12-10T16:16:07.983Z,24.67
2022-12-10T16:18:38.391Z,24.38
2022-12-10T16:21:06.163Z,25.65
2022-12-10T16:23:33.648Z,25.23
2022-12-10T16:26:00.784Z,23.80
2022-12-10T16:28:28.137Z,22.80
2022-12-10T16:30:59.888Z,25.80
2022-12-10T16:33:27.951Z,25.35
2022-12-10T16:35:57.012Z,23.50
2022-12-10T16:38:24.655Z,22.75
2022-12-10T16:40:51.137Z,23.50
2022-12-10T16:43:23.242Z,25.75
2022-12-10T16:45:50.908Z,24.33
2022-12-10T16:48:17.434Z,24.60
2022-12-10T16:50:45.016Z,22.95
2022-12-10T16:53:29.886Z,23.25
2022-12-10T16:55:57.545Z,22.52
2022-12-10T16:58:25.209Z,22.15
2022-12-10T17:00:53.926Z,19.52
2022-12-10T17:03:25.022Z,22.85
2022-12-10T17:08:19.156Z,22.08
2022-12-10T17:11:05.297Z,22.20
2022-12-10T17:13:33.075Z,19.40
2022-12-10T17:15:59.765Z,20.95
2022-12-10T17:18:26.160Z,22.48
2022-12-10T17:20:52.977Z,20.55
2022-12-10T17:23:19.852Z,23.33
2022-12-10T17:25:46.707Z,25.33
2022-12-10T17:28:21.212Z,20.48
2022-12-10T17:30:49.799Z,21.83
2022-12-10T17:33:19.659Z,25.90
2022-12-10T17:35:48.282Z,22.83
2022-12-10T17:38:20.697Z,22.00
2022-12-10T17:40:47.132Z,22.65
2022-12-10T17:43:13.929Z,25.63
2022-12-10T17:45:41.900Z,26.23
2022-12-10T17:48:13.092Z,23.00
2022-12-10T17:50:39.648Z,22.30
2022-12-10T17:53:13.659Z,21.45
2022-12-10T17:55:45.156Z,21.50
2022-12-10T17:58:14.655Z,20.17
2022-12-10T18:00:41.327Z,21.38
2022-12-10T18:03:07.865Z,22.02
2022-12-10T18:05:34.420Z,20.17
2022-12-10T18:08:00.939Z,20.95
2022-12-10T18:10:30.524Z,24.42
2022-12-10T18:12:57.443Z,23.35
2022-12-10T18:15:26.088Z,24.80
2022-12-10T18:17:53.428Z,25.60
2022-12-10T18:20:24.795Z,25.30
2022-12-10T18:22:52.751Z,22.17
2022-12-10T18:25:22.597Z,20.40
2022-12-10T18:27:50.149Z,21.38
2022-12-10T18:30:18.859Z,22.40
2022-12-10T18:32:45.450Z,24.98
2022-12-10T18:35:12.306Z,23.13
2022-12-10T18:37:39.682Z,25.02
2022-12-10T18:40:09.071Z,26.50
2022-12-10T18:42:35.556Z,25.35
2022-12-10T18:45:01.955Z,27.80
2022-12-10T18:47:28.385Z,26.77
2022-12-10T18:49:54.789Z,23.42
2022-12-10T18:52:21.193Z,23.65
2022-12-10T18:54:48.013Z,28.48
2022-12-10T19:00:01.612Z,29.45
2022-12-10T19:02:28.143Z,28.73
2022-12-10T19:04:54.571Z,28.00
2022-12-10T19:07:21.011Z,26.27
2022-12-10T19:09:49.334Z,24.05
2022-12-10T19:12:15.727Z,38.35
2022-12-10T19:14:42.130Z,28.38
2022-12-10T19:17:11.031Z,24.40
2022-12-10T19:19:37.473Z,26.60
2022-12-10T19:22:04.101Z,30.65
2022-12-10T19:24:30.569Z,33.15
2022-12-10T19:26:57.039Z,40.78
2022-12-10T19:29:23.847Z,31.10
2022-12-10T19:31:50.973Z,28.98
2022-12-10T19:34:19.727Z,32.20
2022-12-10T19:36:47.093Z,30.88
2022-12-10T19:39:23.217Z,28.38
2022-12-10T19:41:51.228Z,28.15
2022-12-10T19:44:17.865Z,25.80
2022-12-10T19:46:44.672Z,28.55
2022-12-10T19:49:12.371Z,23.60
2022-12-10T19:51:38.769Z,19.92
2022-12-10T19:54:05.300Z,26.67
2022-12-10T19:56:33.522Z,21.17
2022-12-10T19:59:03.789Z,23.08
2022-12-10T20:01:30.685Z,22.40
2022-12-10T20:03:57.832Z,24.48
2022-12-10T20:06:33.256Z,23.52
2022-12-10T20:09:02.366Z,21.15
2022-12-10T20:11:29.455Z,20.70
2022-12-10T20:13:56.360Z,25.55
2022-12-10T20:16:25.674Z,23.90
2022-12-10T20:18:52.997Z,23.92
2022-12-10T20:21:19.926Z,24.55
2022-12-10T20:23:46.619Z,27.52
2022-12-10T20:26:32.817Z,25.63
2022-12-10T20:29:00.180Z,25.30
2022-12-10T20:31:27.549Z,20.75
2022-12-10T20:33:53.990Z,24.27
2022-12-10T20:36:23.949Z,21.88
2022-12-10T20:38:50.919Z,25.88
2022-12-10T20:41:19.171Z,24.90
2022-12-10T20:43:46.315Z,22.27
2022-12-10T20:46:20.292Z,22.45
2022-12-10T20:48:47.407Z,23.33
2022-12-10T20:51:14.049Z,20.77
2022-12-10T20:53:40.858Z,20.30
2022-12-10T20:56:12.840Z,19.13
2022-12-10T20:58:39.319Z,22.40
2022-12-10T21:01:06.060Z,20.15
2022-12-10T21:03:32.776Z,23.00
2022-12-10T21:06:00.549Z,25.58
2022-12-10T21:08:28.988Z,24.42
2022-12-10T21:10:56.530Z,23.02
2022-12-10T21:13:26.428Z,21.35
2022-12-10T21:15:54.578Z,20.20
2022-12-10T21:18:21.629Z,22.83
2022-12-10T21:20:48.805Z,19.35
2022-12-10T21:23:18.588Z,22.63
2022-12-10T21:25:45.197Z,25.90
2022-12-10T21:28:11.813Z,20.95
2022-12-10T21:30:39.173Z,21.35
2022-12-10T21:33:06.000Z,19.42
2022-12-10T21:35:32.506Z,22.17
2022-12-10T21:37:59.820Z,22.48
2022-12-10T21:40:26.295Z,27.70
2022-12-10T21:43:12.108Z,22.63
2022-12-10T21:45:38.578Z,23.35
2022-12-10T21:48:05.247Z,22.83
2022-12-10T21:50:32.178Z,27.38
2022-12-10T21:52:58.713Z,24.77
2022-12-10T21:55:30.249Z,24.33
2022-12-10T21:57:58.844Z,23.83
2022-12-10T22:00:25.599Z,29.40
2022-12-10T22:02:52.055Z,24.30
2022-12-10T22:05:18.537Z,25.13
2022-12-10T22:07:45.056Z,27.02
2022-12-10T22:10:12.895Z,22.30
2022-12-10T22:12:39.845Z,26.45
2022-12-10T22:15:07.570Z,24.40
2022-12-10T22:17:34.468Z,25.85
2022-12-10T22:20:01.268Z,26.85
2022-12-10T22:22:27.722Z,24.30
2022-12-10T22:24:54.217Z,26.35
2022-12-10T22:27:20.674Z,27.25
2022-12-10T22:29:47.377Z,29.25
2022-12-10T22:32:13.943Z,23.42
2022-12-10T22:34:45.128Z,25.20
2022-12-10T22:39:38.649Z,25.80
2022-12-10T22:42:05.763Z,27.33
2022-12-10T22:44:32.176Z,29.23
2022-12-10T22:46:58.676Z,25.73
2022-12-10T22:49:25.141Z,23.00
2022-12-10T22:51:51.589Z,25.98
2022-12-10T22:54:18.221Z,24.33
2022-12-10T22:56:44.683Z,26.92
2022-12-10T22:59:12.034Z,23.48
2022-12-10T23:01:38.704Z,27.65
2022-12-10T23:04:05.169Z,25.23
2022-12-10T23:06:31.952Z,28.67
2022-12-10T23:08:58.579Z,27.75
2022-12-10T23:11:25.030Z,26.65
2022-12-10T23:13:51.836Z,24.92
2022-12-10T23:16:19.031Z,26.92
2022-12-10T23:18:49.865Z,24.23
2022-12-10T23:21:25.953Z,24.73
2022-12-10T23:23:53.475Z,25.50
2022-12-10T23:26:20.809Z,23.27
2022-12-10T23:28:48.389Z,23.80
2022-12-10T23:31:16.332Z,24.48
2022-12-10T23:33:43.962Z,23.02
2022-12-10T23:36:10.830Z,24.70
2022-12-10T23:38:37.840Z,24.33
2022-12-10T23:41:09.009Z,22.50
2022-12-10T23:43:36.191Z,23.25
2022-12-10T23:46:02.945Z,23.02
2022-12-10T23:48:30.616Z,25.70
2022-12-10T23:50:58.245Z,22.02
2022-12-10T23:53:25.229Z,22.30
2022-12-10T23:55:51.705Z,21.70
2022-12-10T23:58:18.373Z,20.95
